createdAt,value
2022-12-07T00:01:15.617Z,7.3
2022-12-07T00:03:42.151Z,7.3
2022-12-07T00:06:08.906Z,7.4
2022-12-07T00:08:35.605Z,7.3
2022-12-07T00:11:02.221Z,7.3
2022-12-07T00:13:28.913Z,7.4
2022-12-07T00:15:55.681Z,7.4
2022-12-07T00:18:20.858Z,7.4
2022-12-07T00:20:47.679Z,7.4
2022-12-07T00:23:14.209Z,7.4
2022-12-07T00:25:39.415Z,7.3
2022-12-07T00:28:06.132Z,7.4
2022-12-07T00:30:32.795Z,7.4
2022-12-07T00:32:59.475Z,7.4
2022-12-07T00:35:26.199Z,7.4
2022-12-07T00:37:52.874Z,7.4
2022-12-07T00:40:19.573Z,7.3
2022-12-07T00:42:46.227Z,7.3
2022-12-07T00:45:12.916Z,7.4
2022-12-07T00:47:39.583Z,7.4
2022-12-07T00:50:06.274Z,7.3
2022-12-07T00:52:33.022Z,7.3
2022-12-07T00:54:59.709Z,7.3
2022-12-07T00:57:24.961Z,7.3
2022-12-07T00:59:51.550Z,7.3
2022-12-07T01:02:18.287Z,7.4
2022-12-07T01:04:44.924Z,7.3
2022-12-07T01:07:11.676Z,7.3
2022-12-07T01:09:38.291Z,7.3
2022-12-07T01:12:05.022Z,7.3
2022-12-07T01:14:31.695Z,7.3
2022-12-07T01:16:58.357Z,7.3
2022-12-07T01:19:25.087Z,7.3
2022-12-07T01:24:18.405Z,7.3
2022-12-07T01:26:45.161Z,7.3
2022-12-07T01:29:10.353Z,7.3
2022-12-07T01:31:36.994Z,7.3
2022-12-07T01:34:03.714Z,7.3
2022-12-07T01:36:30.389Z,7.3
2022-12-07T01:38:57.057Z,7.3
2022-12-07T01:41:23.740Z,7.3
2022-12-07T01:43:50.425Z,7.3
2022-12-07T01:46:17.108Z,7.3
2022-12-07T01:48:43.791Z,7.3
2022-12-07T01:51:10.621Z,7.3
2022-12-07T01:53:37.152Z,7.3
2022-12-07T01:56:03.940Z,7.3
2022-12-07T01:58:30.529Z,7.3
2022-12-07T02:00:55.835Z,7.3
2022-12-07T02:03:22.479Z,7.3
2022-12-07T02:05:49.177Z,7.3
2022-12-07T02:08:15.819Z,7.3
2022-12-07T02:10:42.653Z,7.3
2022-12-07T02:13:09.196Z,7.3
2022-12-07T02:18:02.603Z,7.3
2022-12-07T02:20:29.259Z,7.3
2022-12-07T02:22:55.927Z,7.3
2022-12-07T02:25:22.618Z,7.3
2022-12-07T02:27:49.295Z,7.3
2022-12-07T02:30:15.985Z,7.3
2022-12-07T02:32:42.703Z,7.3
2022-12-07T02:35:07.911Z,7.3
2022-12-07T02:37:34.575Z,7.3
2022-12-07T02:40:01.312Z,7.3
2022-12-07T02:42:27.949Z,7.3
2022-12-07T02:44:54.628Z,7.3
2022-12-07T02:47:21.363Z,7.3
2022-12-07T02:49:48.012Z,7.3
2022-12-07T02:52:14.680Z,7.3
2022-12-07T02:54:41.379Z,7.3
2022-12-07T02:57:08.047Z,7.3
2022-12-07T02:59:34.745Z,7.3
2022-12-07T03:02:01.434Z,7.3
2022-12-07T03:04:28.174Z,7.3
2022-12-07T03:06:53.331Z,7.3
2022-12-07T03:09:20.091Z,7.3
2022-12-07T03:11:46.723Z,7.3
2022-12-07T03:14:13.389Z,7.3
2022-12-07T03:16:40.074Z,7.3
2022-12-07T03:19:06.762Z,7.3
2022-12-07T03:21:33.447Z,7.2
2022-12-07T03:24:00.133Z,7.3
2022-12-07T03:26:26.816Z,7.3
2022-12-07T03:28:53.497Z,7.3
2022-12-07T03:31:20.199Z,7.3
2022-12-07T03:33:46.875Z,7.3
2022-12-07T03:36:13.611Z,7.2
2022-12-07T03:38:38.782Z,7.3
2022-12-07T03:41:05.455Z,7.3
2022-12-07T03:43:32.207Z,7.2
2022-12-07T03:45:58.939Z,7.3
2022-12-07T03:48:25.517Z,7.2
2022-12-07T03:50:52.297Z,7.2
2022-12-07T03:53:18.880Z,7.2
2022-12-07T03:55:45.567Z,7.2
2022-12-07T03:58:12.250Z,7.2
2022-12-07T04:00:38.975Z,7.2
2022-12-07T04:03:05.633Z,7.2
2022-12-07T04:05:32.302Z,7.2
2022-12-07T04:07:58.988Z,7.2
2022-12-07T04:10:24.265Z,7.2
2022-12-07T04:12:50.901Z,7.2
2022-12-07T04:15:17.795Z,7.2
2022-12-07T04:17:44.282Z,7.2
2022-12-07T04:20:10.949Z,7.2
2022-12-07T04:22:37.649Z,7.2
2022-12-07T04:25:04.311Z,7.2
2022-12-07T04:27:31.009Z,7.2
2022-12-07T04:29:57.686Z,7.2
2022-12-07T04:32:24.394Z,7.2
2022-12-07T04:34:51.089Z,7.2
2022-12-07T04:37:17.744Z,7.2
2022-12-07T04:39:44.423Z,7.2
2022-12-07T04:42:09.665Z,7.2
2022-12-07T04:44:36.330Z,7.2
2022-12-07T04:47:03.046Z,7.2
2022-12-07T04:49:29.714Z,7.2
2022-12-07T04:51:56.398Z,7.2
2022-12-07T04:54:23.174Z,7.2
2022-12-07T04:56:49.789Z,7.2
2022-12-07T04:59:16.442Z,7.2
2022-12-07T05:01:43.135Z,7.2
2022-12-07T05:04:09.824Z,7.2
2022-12-07T05:06:36.515Z,7.2
2022-12-07T05:09:03.242Z,7.2
2022-12-07T05:11:29.878Z,7.2
2022-12-07T05:13:55.092Z,7.2
2022-12-07T05:16:21.782Z,7.2
2022-12-07T05:18:48.468Z,7.2
2022-12-07T05:21:15.158Z,7.2
2022-12-07T05:23:41.885Z,7.2
2022-12-07T05:26:08.526Z,7.2
2022-12-07T05:28:35.216Z,7.2
2022-12-07T05:31:01.898Z,7.2
2022-12-07T05:33:28.573Z,7.2
2022-12-07T05:35:55.257Z,7.2
2022-12-07T05:38:21.949Z,7.2
2022-12-07T05:40:48.638Z,7.2
2022-12-07T05:43:15.459Z,7.2
2022-12-07T05:45:40.544Z,7.2
2022-12-07T05:48:07.222Z,7.2
2022-12-07T05:50:33.956Z,7.2
2022-12-07T05:53:00.617Z,7.2
2022-12-07T05:55:27.277Z,7.2
2022-12-07T05:57:53.973Z,7.2
2022-12-07T06:00:20.736Z,7.2
2022-12-07T06:02:47.340Z,7.2
2022-12-07T06:05:14.020Z,7.2
2022-12-07T06:07:40.701Z,7.2
2022-12-07T06:10:07.395Z,7.2
2022-12-07T06:12:34.068Z,7.2
2022-12-07T06:15:00.763Z,7.2
2022-12-07T06:17:25.982Z,7.2
2022-12-07T06:19:52.700Z,7.2
2022-12-07T06:22:19.410Z,7.2
2022-12-07T06:24:46.086Z,7.2
2022-12-07T06:27:12.898Z,7.2
2022-12-07T06:29:39.400Z,7.2
2022-12-07T06:32:06.093Z,7.2
2022-12-07T06:34:32.784Z,7.2
2022-12-07T06:36:59.460Z,7.2
2022-12-07T06:39:26.155Z,7.2
2022-12-07T06:41:52.831Z,7.2
2022-12-07T06:44:19.530Z,7.2
2022-12-07T06:46:46.221Z,7.2
2022-12-07T06:49:11.541Z,7.2
2022-12-07T06:51:38.202Z,7.2
2022-12-07T06:54:04.793Z,7.2
2022-12-07T06:56:31.476Z,7.2
2022-12-07T06:58:58.176Z,7.2
2022-12-07T07:01:24.995Z,7.2
2022-12-07T07:03:51.543Z,7.2
2022-12-07T07:06:18.364Z,7.2
2022-12-07T07:08:44.995Z,7.1
2022-12-07T07:11:11.610Z,7.2
2022-12-07T07:13:38.415Z,7.1
2022-12-07T07:16:04.962Z,7.1
2022-12-07T07:18:31.658Z,7.1
2022-12-07T07:20:56.981Z,7.1
2022-12-07T07:23:23.554Z,7.1
2022-12-07T07:25:50.251Z,7.1
2022-12-07T07:28:16.997Z,7.1
2022-12-07T07:30:43.721Z,7.1
2022-12-07T07:33:10.297Z,7.1
2022-12-07T07:35:37.053Z,7.1
2022-12-07T07:38:03.660Z,7.1
2022-12-07T07:40:30.344Z,7.1
2022-12-07T07:42:57.030Z,7.1
2022-12-07T07:45:23.711Z,7.1
2022-12-07T07:47:50.536Z,7.1
2022-12-07T07:50:17.128Z,7.1
2022-12-07T07:52:42.357Z,7.1
2022-12-07T07:55:09.002Z,7.1
2022-12-07T07:57:35.760Z,7.1
2022-12-07T08:00:02.375Z,7.1
2022-12-07T08:02:29.228Z,7.1
2022-12-07T08:04:55.744Z,7.1
2022-12-07T08:07:22.463Z,7.1
2022-12-07T08:09:49.117Z,7.1
2022-12-07T08:12:15.797Z,7.1
2022-12-07T08:14:42.584Z,7.1
2022-12-07T08:17:09.171Z,7.1
2022-12-07T08:19:35.920Z,7.1
2022-12-07T08:22:02.547Z,7.1
2022-12-07T08:24:27.836Z,7.1
2022-12-07T08:26:54.566Z,7.1
2022-12-07T08:29:21.270Z,7.1
2022-12-07T08:31:47.977Z,7.1
2022-12-07T08:34:14.651Z,7.1
2022-12-07T08:36:39.767Z,7.1
2022-12-07T08:39:06.462Z,7.1
2022-12-07T08:41:33.215Z,7.1
2022-12-07T08:43:59.807Z,7.1
2022-12-07T08:46:26.637Z,7.1
2022-12-07T08:48:53.198Z,7.1
2022-12-07T08:51:19.906Z,7.1
2022-12-07T08:53:46.537Z,7.1
2022-12-07T08:56:13.397Z,7.1
2022-12-07T08:58:39.919Z,7.1
2022-12-07T09:01:06.739Z,7.1
2022-12-07T09:03:33.321Z,7.1
2022-12-07T09:05:59.957Z,7.1
2022-12-07T09:08:26.713Z,7.2
2022-12-07T09:10:52.102Z,7.2
2022-12-07T09:13:18.630Z,7.2
2022-12-07T09:15:45.398Z,7.2
2022-12-07T09:18:11.994Z,7.2
2022-12-07T09:20:38.684Z,7.2
2022-12-07T09:23:05.378Z,7.2
2022-12-07T09:25:32.007Z,7.2
2022-12-07T09:27:58.667Z,7.3
2022-12-07T09:30:25.464Z,7.3
2022-12-07T09:32:52.073Z,7.4
2022-12-07T09:35:18.935Z,7.4
2022-12-07T09:37:45.564Z,7.4
2022-12-07T09:40:12.218Z,7.5
2022-12-07T09:45:04.055Z,7.6
2022-12-07T09:47:30.771Z,7.6
2022-12-07T09:52:24.126Z,7.7
2022-12-07T09:54:50.789Z,7.7
2022-12-07T09:57:17.517Z,7.7
2022-12-07T09:59:44.137Z,7.8
2022-12-07T10:02:10.879Z,7.8
2022-12-07T10:04:37.611Z,7.9
2022-12-07T10:07:04.304Z,7.9
2022-12-07T10:09:30.902Z,7.9
2022-12-07T10:11:57.541Z,7.9
2022-12-07T10:14:24.224Z,7.9
2022-12-07T10:16:50.985Z,7.9
2022-12-07T10:19:17.627Z,7.9
2022-12-07T10:21:44.277Z,7.9
2022-12-07T10:24:11.051Z,7.9
2022-12-07T10:26:36.352Z,7.9
2022-12-07T10:29:02.895Z,7.9
2022-12-07T10:31:29.709Z,7.9
2022-12-07T10:36:23.012Z,7.9
2022-12-07T10:38:49.618Z,7.9
2022-12-07T10:41:16.352Z,7.9
2022-12-07T10:43:43.024Z,7.9
2022-12-07T10:46:09.788Z,7.9
2022-12-07T10:48:36.369Z,7.9
2022-12-07T10:51:03.051Z,7.9
2022-12-07T10:53:29.782Z,7.9
2022-12-07T10:55:56.558Z,7.9
2022-12-07T10:58:21.742Z,7.9
2022-12-07T11:00:48.351Z,7.9
2022-12-07T11:03:15.093Z,7.8
2022-12-07T11:05:41.691Z,7.8
2022-12-07T11:08:08.410Z,7.8
2022-12-07T11:10:35.154Z,7.8
2022-12-07T11:13:01.868Z,7.8
2022-12-07T11:15:28.607Z,7.8
2022-12-07T11:20:21.811Z,7.8
2022-12-07T11:25:15.339Z,7.7
2022-12-07T11:27:40.593Z,7.7
2022-12-07T11:30:07.248Z,7.7
2022-12-07T11:34:59.436Z,7.7
2022-12-07T11:37:25.884Z,7.7
2022-12-07T11:39:52.516Z,7.7
2022-12-07T11:42:19.246Z,7.7
2022-12-07T11:44:45.909Z,7.7
2022-12-07T11:47:12.572Z,7.7
2022-12-07T11:49:39.318Z,7.7
2022-12-07T11:52:05.914Z,7.7
2022-12-07T11:54:32.647Z,7.7
2022-12-07T11:56:59.335Z,7.7
2022-12-07T11:59:25.985Z,7.7
2022-12-07T12:01:52.592Z,7.7
2022-12-07T12:04:19.319Z,7.6
2022-12-07T12:09:11.138Z,7.7
2022-12-07T12:11:37.447Z,7.6
2022-12-07T12:14:02.715Z,7.6
2022-12-07T12:16:27.999Z,7.6
2022-12-07T12:18:54.641Z,7.6
2022-12-07T12:23:48.272Z,7.6
2022-12-07T12:26:14.678Z,7.6
2022-12-07T12:28:41.350Z,7.6
2022-12-07T12:31:08.030Z,7.6
2022-12-07T12:33:34.732Z,7.6
2022-12-07T12:36:01.400Z,7.6
2022-12-07T12:38:28.085Z,7.6
2022-12-07T12:40:54.769Z,7.6
2022-12-07T12:43:21.448Z,7.6
2022-12-07T12:45:48.138Z,7.6
2022-12-07T12:48:13.365Z,7.6
2022-12-07T12:50:40.079Z,7.6
2022-12-07T12:53:06.741Z,7.6
2022-12-07T12:55:33.413Z,7.6
2022-12-07T12:58:00.111Z,7.6
2022-12-07T13:00:26.792Z,7.6
2022-12-07T13:02:53.473Z,7.6
2022-12-07T13:05:20.176Z,7.6
2022-12-07T13:07:45.425Z,7.6
2022-12-07T13:10:10.722Z,7.6
2022-12-07T13:17:30.683Z,7.6
2022-12-07T13:19:57.363Z,7.6
2022-12-07T13:22:24.142Z,7.6
2022-12-07T13:24:50.717Z,7.6
2022-12-07T13:27:17.442Z,7.6
2022-12-07T13:29:44.195Z,7.6
2022-12-07T13:32:10.781Z,7.6
2022-12-07T13:34:37.560Z,7.6
2022-12-07T13:39:30.915Z,7.6
2022-12-07T13:41:56.212Z,7.6
2022-12-07T13:44:22.779Z,7.6
2022-12-07T13:46:47.990Z,7.6
2022-12-07T13:49:14.693Z,7.6
2022-12-07T13:51:41.374Z,7.6
2022-12-07T13:54:08.091Z,7.6
2022-12-07T13:56:34.730Z,7.6
2022-12-07T13:59:01.410Z,7.6
2022-12-07T14:03:54.792Z,7.6
2022-12-07T14:06:21.546Z,7.6
2022-12-07T14:08:48.219Z,7.6
2022-12-07T14:11:14.999Z,7.5
2022-12-07T14:13:41.538Z,7.6
2022-12-07T14:16:08.386Z,7.6
2022-12-07T14:18:33.435Z,7.5
2022-12-07T14:21:00.121Z,7.6
2022-12-07T14:23:26.848Z,7.6
2022-12-07T14:25:53.560Z,7.6
2022-12-07T14:28:20.205Z,7.5
2022-12-07T14:30:46.955Z,7.5
2022-12-07T14:33:13.545Z,7.5
2022-12-07T14:35:38.804Z,7.5
2022-12-07T14:38:04.093Z,7.5
2022-12-07T14:40:30.715Z,7.5
2022-12-07T14:42:57.451Z,7.5
2022-12-07T14:45:24.088Z,7.5
2022-12-07T14:47:50.755Z,7.5
2022-12-07T14:50:17.502Z,7.5
2022-12-07T14:52:44.122Z,7.5
2022-12-07T14:55:10.826Z,7.5
2022-12-07T15:00:04.175Z,7.5
2022-12-07T15:02:31.033Z,7.5
2022-12-07T15:04:57.589Z,7.5
2022-12-07T15:07:24.271Z,7.5
2022-12-07T15:09:49.601Z,7.5
2022-12-07T15:12:16.242Z,7.5
2022-12-07T15:14:42.847Z,7.5
2022-12-07T15:17:09.552Z,7.5
2022-12-07T15:19:36.330Z,7.5
2022-12-07T15:22:02.905Z,7.5
2022-12-07T15:24:29.606Z,7.5
2022-12-07T15:26:56.259Z,7.5
2022-12-07T15:29:23.033Z,7.5
2022-12-07T15:31:49.684Z,7.5
2022-12-07T15:34:16.414Z,7.5
2022-12-07T15:36:41.730Z,7.5
2022-12-07T15:41:33.562Z,7.5
2022-12-07T15:44:00.153Z,7.5
2022-12-07T15:46:26.907Z,7.5
2022-12-07T15:48:53.507Z,7.5
2022-12-07T15:51:20.203Z,7.5
2022-12-07T15:53:46.876Z,7.5
2022-12-07T15:56:13.588Z,7.5
2022-12-07T15:58:40.256Z,7.5
2022-12-07T16:01:07.051Z,7.5
2022-12-07T16:03:38.217Z,7.5
2022-12-07T16:06:00.439Z,7.5
2022-12-07T16:08:27.084Z,7.5
2022-12-07T16:10:52.297Z,7.5
2022-12-07T16:13:18.918Z,7.5
2022-12-07T16:15:45.593Z,7.5
2022-12-07T16:18:12.276Z,7.5
2022-12-07T16:20:38.994Z,7.5
2022-12-07T16:23:06.155Z,7.5
2022-12-07T16:27:59.026Z,7.4
2022-12-07T16:30:25.697Z,7.4
2022-12-07T16:32:52.430Z,7.5
2022-12-07T16:35:19.121Z,7.4
2022-12-07T16:37:45.751Z,7.4
2022-12-07T16:40:12.597Z,7.4
2022-12-07T16:42:39.269Z,7.4
2022-12-07T16:45:04.351Z,7.4
2022-12-07T16:47:29.694Z,7.4
2022-12-07T16:49:56.283Z,7.4
2022-12-07T16:52:23.064Z,7.4
2022-12-07T16:57:16.473Z,7.4
2022-12-07T16:59:43.133Z,7.4
2022-12-07T17:02:09.698Z,7.4
2022-12-07T17:04:36.426Z,7.4
2022-12-07T17:07:03.106Z,7.4
2022-12-07T17:09:29.835Z,7.4
2022-12-07T17:11:56.498Z,7.4
2022-12-07T17:16:50.073Z,7.5
2022-12-07T17:19:16.509Z,7.5
2022-12-07T17:21:41.815Z,7.5
2022-12-07T17:24:08.576Z,7.5
2022-12-07T17:26:35.079Z,7.5
2022-12-07T17:29:01.902Z,7.6
2022-12-07T17:31:28.508Z,7.6
2022-12-07T17:33:55.139Z,7.6
2022-12-07T17:36:21.810Z,7.7
2022-12-07T17:38:48.502Z,7.7
2022-12-07T17:41:15.828Z,7.7
2022-12-07T17:43:41.887Z,7.7
2022-12-07T17:46:08.609Z,7.8
2022-12-07T17:48:35.248Z,7.9
2022-12-07T17:51:02.020Z,7.9
2022-12-07T17:55:55.310Z,8.1
2022-12-07T17:58:20.569Z,8.1
2022-12-07T18:00:47.206Z,8.2
2022-12-07T18:03:13.902Z,8.2
2022-12-07T18:05:42.908Z,8.3
2022-12-07T18:08:07.252Z,8.3
2022-12-07T18:10:33.941Z,8.4
2022-12-07T18:13:00.636Z,8.4
2022-12-07T18:15:27.362Z,8.4
2022-12-07T18:17:54.003Z,8.5
2022-12-07T18:20:20.717Z,8.6
2022-12-07T18:22:47.369Z,8.6
2022-12-07T18:25:14.062Z,8.6
2022-12-07T18:27:40.748Z,8.7
2022-12-07T18:32:32.672Z,8.7
2022-12-07T18:37:26.026Z,8.8
2022-12-07T18:39:52.750Z,8.9
2022-12-07T18:42:19.483Z,8.9
2022-12-07T18:44:44.724Z,9
2022-12-07T18:47:11.332Z,9
2022-12-07T18:49:36.558Z,9.1
2022-12-07T18:52:03.262Z,9.1
2022-12-07T18:54:31.854Z,9.2
2022-12-07T18:56:56.610Z,9.2
2022-12-07T18:59:23.436Z,9.1
2022-12-07T19:01:50.158Z,9.2
2022-12-07T19:04:16.658Z,9.2
2022-12-07T19:06:43.392Z,9.2
2022-12-07T19:09:10.023Z,9.2
2022-12-07T19:11:36.733Z,9.2
2022-12-07T19:14:02.534Z,9.2
2022-12-07T19:16:28.658Z,9.2
2022-12-07T19:18:54.017Z,9.2
2022-12-07T19:23:47.250Z,9.1
2022-12-07T19:26:13.951Z,9.1
2022-12-07T19:28:40.617Z,9.1
2022-12-07T19:31:07.318Z,9.1
2022-12-07T19:33:33.991Z,9.1
2022-12-07T19:40:54.050Z,9
2022-12-07T19:45:47.407Z,8.9
2022-12-07T19:48:14.142Z,8.9
2022-12-07T19:50:39.340Z,8.9
2022-12-07T19:53:06.035Z,8.9
2022-12-07T19:55:32.722Z,8.9
2022-12-07T19:57:57.941Z,8.9
2022-12-07T20:00:24.668Z,8.9
2022-12-07T20:02:51.306Z,8.8
2022-12-07T20:05:18.094Z,8.8
2022-12-07T20:07:45.024Z,8.8
2022-12-07T20:10:11.372Z,8.8
2022-12-07T20:12:38.046Z,8.7
2022-12-07T20:15:04.762Z,8.7
2022-12-07T20:17:29.989Z,8.7
2022-12-07T20:19:56.727Z,8.7
2022-12-07T20:22:23.365Z,8.7
2022-12-07T20:24:50.090Z,8.7
2022-12-07T20:27:16.783Z,8.7
2022-12-07T20:29:42.049Z,8.6
2022-12-07T20:32:09.029Z,8.6
2022-12-07T20:37:02.100Z,8.6
2022-12-07T20:39:28.758Z,8.6
2022-12-07T20:41:55.416Z,8.6
2022-12-07T20:44:22.066Z,8.6
2022-12-07T20:46:48.759Z,8.5
2022-12-07T20:51:42.153Z,8.5
2022-12-07T20:54:08.809Z,8.5
2022-12-07T20:59:00.763Z,8.4
2022-12-07T21:01:26.094Z,8.4
2022-12-07T21:03:51.207Z,8.4
2022-12-07T21:06:17.923Z,8.4
2022-12-07T21:08:44.583Z,8.4
2022-12-07T21:11:11.269Z,8.4
2022-12-07T21:13:37.949Z,8.4
2022-12-07T21:16:04.642Z,8.4
2022-12-07T21:18:31.314Z,8.4
2022-12-07T21:20:58.353Z,8.3
2022-12-07T21:23:24.748Z,8.3
2022-12-07T21:25:51.377Z,8.3
2022-12-07T21:28:16.629Z,8.3
2022-12-07T21:30:41.862Z,8.2
2022-12-07T21:35:35.394Z,8.2
2022-12-07T21:38:02.106Z,8.2
2022-12-07T21:40:28.599Z,8.2
2022-12-07T21:42:55.282Z,8.2
2022-12-07T21:47:48.785Z,8.2
2022-12-07T21:50:15.435Z,8.2
2022-12-07T21:52:42.022Z,8.2
2022-12-07T21:55:08.812Z,8.2
2022-12-07T21:57:35.393Z,8.1
2022-12-07T22:00:00.706Z,8.1
2022-12-07T22:02:27.456Z,8.1
2022-12-07T22:04:54.156Z,8.1
2022-12-07T22:07:19.375Z,8.1
2022-12-07T22:09:46.199Z,8.1
2022-12-07T22:12:12.618Z,8.1
2022-12-07T22:14:39.291Z,8.1
2022-12-07T22:17:06.066Z,8.1
2022-12-07T22:19:32.649Z,8.1
2022-12-07T22:21:59.423Z,8.1
2022-12-07T22:24:26.050Z,8.1
2022-12-07T22:26:51.400Z,8
2022-12-07T22:29:16.659Z,8
2022-12-07T22:31:43.266Z,8
2022-12-07T22:36:36.611Z,8
2022-12-07T22:39:03.337Z,8
2022-12-07T22:41:29.972Z,7.9
2022-12-07T22:43:56.629Z,7.9
2022-12-07T22:46:23.313Z,7.9
2022-12-07T22:48:50.088Z,7.9
2022-12-07T22:51:16.687Z,7.9
2022-12-07T22:53:43.346Z,7.9
2022-12-07T22:56:10.211Z,7.9
2022-12-07T22:58:36.806Z,7.9
2022-12-07T23:01:01.937Z,7.9
2022-12-07T23:03:28.689Z,7.9
2022-12-07T23:05:55.412Z,7.9
2022-12-07T23:08:22.044Z,7.9
2022-12-07T23:10:48.833Z,7.9
2022-12-07T23:13:15.472Z,7.9
2022-12-07T23:15:42.062Z,7.8
2022-12-07T23:18:08.735Z,7.8
2022-12-07T23:20:35.547Z,7.8
2022-12-07T23:23:02.108Z,7.8
2022-12-07T23:25:28.942Z,7.8
2022-12-07T23:27:55.634Z,7.8
2022-12-07T23:30:22.226Z,7.8
2022-12-07T23:32:48.839Z,7.7
2022-12-07T23:35:14.103Z,7.7
2022-12-07T23:37:40.760Z,7.7
2022-12-07T23:40:07.441Z,7.7
2022-12-07T23:42:34.310Z,7.7
2022-12-07T23:45:00.886Z,7.7
2022-12-07T23:47:27.635Z,7.7
2022-12-07T23:49:54.198Z,7.7
2022-12-07T23:52:20.933Z,7.7
2022-12-07T23:54:47.586Z,7.7
2022-12-07T23:57:14.242Z,7.7
2022-12-07T23:59:40.917Z,7.7
